Red Boiling Springs, Tennessee
Current Conditions -  °F | °C
As of 3:55 PM on Friday 28 Nov 2014 (Local Time) from KGLW Reporting Station
Clear Clear  
Wind Chill: 37°   Ceiling: Unl
Heat Index: 41°   Visibility: 10mi
Dew Point: 20°   Wind: 6mph
Humidity: 44%   Direction: 170°S
Pressure: 30.21"   Gusts: NA
Location:  36.53°N, 85.85°W
Report Text: KGLW 282155Z AUTO 17005KT 10SM CLR 05/M06 A3021 RMK AO2 T00511064
Loading
Personal Weather Stations






























Interactive Weather Map New forecast layout! Learn more

10-Day Weather Forecast

Advertisements
Track Severe Weather on mobile